Time;durP1;ratioP1;P1;durP2;ratioP2;P2;SDS_P1;SDS_P2;PMS_P1;PMS_P2;Temp;Humidity;BMP_temperature;BMP_pressure;BME280_temperature;BME280_humidity;BME280_pressure;Samples;Min_cycle;Max_cycle;Signal;HPM_P1;HPM_P2
2019/07/06 00:01:54;;;;;;;4.7;3.6;;;;;;;18.38;60.32031;938.5369;;;;
2019/07/06 00:04:19;;;;;;;5.9;4;;;;;;;18.36;60.83984;938.5359;;;;
2019/07/06 00:06:55;;;;;;;6.5;3.8;;;;;;;18.45;60.72559;938.4988;;;;
2019/07/06 00:09:26;;;;;;;7;4;;;;;;;18.4;60.51074;938.5043;;;;
2019/07/06 00:11:52;;;;;;;4.4;3.9;;;;;;;18.44;60.50293;938.4531;;;;
2019/07/06 00:14:20;;;;;;;5.1;3.9;;;;;;;18.37;60.31934;938.4178;;;;
2019/07/06 00:16:46;;;;;;;7.8;4.2;;;;;;;18.43;60.32715;938.4928;;;;
2019/07/06 00:19:18;;;;;;;4.1;3.7;;;;;;;18.43;60.76855;938.4451;;;;
2019/07/06 00:21:43;;;;;;;6.1;4.2;;;;;;;18.3;60.90234;938.4523;;;;
2019/07/06 00:24:11;;;;;;;4.9;3.7;;;;;;;18.26;60.19922;938.4283;;;;
2019/07/06 00:26:38;;;;;;;6.5;3.7;;;;;;;18.33;60.5459;938.4405;;;;
2019/07/06 00:29:10;;;;;;;6.8;4.7;;;;;;;18.16;62.69531;938.4533;;;;
2019/07/06 00:31:29;;;;;;;4.3;3.9;;;;;;;18.06;62.61133;938.4567;;;;
2019/07/06 00:33:56;;;;;;;6.4;4.2;;;;;;;18.06;61.92578;938.5044;;;;
2019/07/06 00:36:28;;;;;;;6;4.2;;;;;;;17.95;61.62012;938.4568;;;;
2019/07/06 00:39:00;;;;;;;6.8;4.5;;;;;;;17.9;63.27441;938.3425;;;;
2019/07/06 00:41:25;;;;;;;7.9;5;;;;;;;17.6;63.00977;938.3407;;;;
2019/07/06 00:43:55;;;;;;;7.6;4.8;;;;;;;17.51;63.57813;938.3044;;;;
2019/07/06 00:46:23;;;;;;;6.8;5.1;;;;;;;17.8;62.5752;938.2733;;;;
2019/07/06 00:48:55;;;;;;;6.4;4.8;;;;;;;17.93;62.97656;938.309;;;;
2019/07/06 00:51:27;;;;;;;6.1;5;;;;;;;17.88;64.32715;938.264;;;;
2019/07/06 00:53:58;;;;;;;7.6;5.5;;;;;;;17.74;64.20313;938.2203;;;;
2019/07/06 00:56:23;;;;;;;5.6;4.6;;;;;;;17.82;63.25098;938.2198;;;;
2019/07/06 00:58:56;;;;;;;6.1;4.7;;;;;;;17.83;63.6582;938.1924;;;;
2019/07/06 01:01:31;;;;;;;7.9;5.3;;;;;;;17.68;64.06738;938.1852;;;;
2019/07/06 01:04:02;;;;;;;6.7;5.1;;;;;;;17.65;64.51465;938.1154;;;;
2019/07/06 01:06:22;;;;;;;5.9;4.6;;;;;;;17.35;64.72559;938.0275;;;;
2019/07/06 01:08:46;;;;;;;6.1;4.6;;;;;;;17.18;65.31543;938.0002;;;;
2019/07/06 01:11:18;;;;;;;7.3;4.9;;;;;;;17.39;64.49902;938.005;;;;
2019/07/06 01:13:49;;;;;;;5.4;4.4;;;;;;;17.52;63.87988;938.0715;;;;
2019/07/06 01:16:17;;;;;;;6;4.4;;;;;;;17.43;64.04199;938.0522;;;;
2019/07/06 01:18:42;;;;;;;7.7;4.6;;;;;;;17.53;63.74219;937.9805;;;;
2019/07/06 01:21:08;;;;;;;6.6;4.9;;;;;;;17.4;65.29102;937.9694;;;;
2019/07/06 01:23:31;;;;;;;5.7;4.8;;;;;;;17.4;65.5918;937.9139;;;;
2019/07/06 01:25:57;;;;;;;7.5;4.9;;;;;;;17.34;64.85254;937.9551;;;;
2019/07/06 01:28:26;;;;;;;5.6;4.5;;;;;;;17.24;64.20996;937.9038;;;;
2019/07/06 01:30:52;;;;;;;9.6;5.2;;;;;;;17.17;64.52539;937.7831;;;;
2019/07/06 01:33:17;;;;;;;7.1;4.8;;;;;;;17.17;64.97754;937.7831;;;;
2019/07/06 01:35:50;;;;;;;6;4.9;;;;;;;17.19;64.43652;937.8488;;;;
2019/07/06 01:38:24;;;;;;;5.6;4.6;;;;;;;16.92;65.48633;937.8086;;;;
2019/07/06 01:40:51;;;;;;;7.4;4.8;;;;;;;16.82;66.31543;937.8599;;;;
2019/07/06 01:43:17;;;;;;;7;4.7;;;;;;;16.79;66.58887;937.8972;;;;
2019/07/06 01:45:49;;;;;;;7.2;4.9;;;;;;;16.63;67.375;937.8558;;;;
2019/07/06 01:48:25;;;;;;;6.9;4.8;;;;;;;16.61;67.69629;937.8197;;;;
2019/07/06 01:50:56;;;;;;;6.3;4.6;;;;;;;16.79;66.99512;937.8586;;;;
2019/07/06 01:53:21;;;;;;;7.3;4.7;;;;;;;16.82;66.81445;937.782;;;;
2019/07/06 01:55:50;;;;;;;9.8;5.3;;;;;;;16.76;67.26855;937.8365;;;;
2019/07/06 01:58:26;;;;;;;7.8;4.9;;;;;;;16.96;66.39355;937.7356;;;;
2019/07/06 02:00:50;;;;;;;5.8;5;;;;;;;16.99;66.19043;937.7101;;;;
2019/07/06 02:03:22;;;;;;;7.1;5.3;;;;;;;16.97;67.14941;937.6744;;;;
2019/07/06 02:05:54;;;;;;;8.2;5.6;;;;;;;16.97;66.31641;937.7467;;;;
2019/07/06 02:08:17;;;;;;;8.4;5.2;;;;;;;17;66.23828;937.7687;;;;
2019/07/06 02:10:50;;;;;;;6.6;4.8;;;;;;;17.1;66.31152;937.7321;;;;
2019/07/06 02:13:12;;;;;;;6.4;4.5;;;;;;;17.08;65.26563;937.7389;;;;
2019/07/06 02:15:44;;;;;;;7.2;5.2;;;;;;;16.95;65.4209;937.7277;;;;
2019/07/06 02:18:06;;;;;;;5.5;4.5;;;;;;;16.66;66.39551;937.6512;;;;
2019/07/06 02:20:36;;;;;;;9.9;5.1;;;;;;;16.5;66.99512;937.683;;;;
2019/07/06 02:23:03;;;;;;;9.2;4.8;;;;;;;16.36;67.16113;937.6516;;;;
2019/07/06 02:25:31;;;;;;;6.6;4.6;;;;;;;16.42;66.8916;937.6195;;;;
2019/07/06 02:27:55;;;;;;;6.8;5.1;;;;;;;16.58;66.60449;937.5314;;;;
2019/07/06 02:30:22;;;;;;;5.3;4.4;;;;;;;16.6;66.25977;937.6019;;;;
2019/07/06 02:32:56;;;;;;;5.8;4.5;;;;;;;16.76;65.9834;937.5663;;;;
2019/07/06 02:35:27;;;;;;;6.4;5;;;;;;;16.79;66.96973;937.6319;;;;
2019/07/06 02:37:52;;;;;;;7;4.4;;;;;;;16.68;65.79688;937.6616;;;;
2019/07/06 02:40:19;;;;;;;7.6;4.7;;;;;;;16.55;66.19336;937.6766;;;;
2019/07/06 02:42:45;;;;;;;6.1;4.4;;;;;;;16.41;66.78613;937.6422;;;;
2019/07/06 02:45:09;;;;;;;8;4.9;;;;;;;16.32;67.34961;937.6274;;;;
2019/07/06 02:47:40;;;;;;;7.6;4.5;;;;;;;16.22;67.60059;937.5875;;;;
2019/07/06 02:50:17;;;;;;;7;4.8;;;;;;;16.13;68.0625;937.6794;;;;
2019/07/06 02:52:46;;;;;;;4.9;4.4;;;;;;;16.37;67.48535;937.6814;;;;
2019/07/06 02:55:13;;;;;;;6.4;4.3;;;;;;;16.58;66.82227;937.6819;;;;
2019/07/06 02:57:40;;;;;;;8.2;4.8;;;;;;;16.54;66.78223;937.6309;;;;
2019/07/06 03:00:07;;;;;;;6.2;4.8;;;;;;;16.15;68.53906;937.655;;;;
2019/07/06 03:02:39;;;;;;;7.6;4.6;;;;;;;16.04;69.04297;937.6122;;;;
2019/07/06 03:05:07;;;;;;;6.7;4.9;;;;;;;16.23;68.34375;937.5948;;;;
2019/07/06 03:07:34;;;;;;;8;4.9;;;;;;;16.17;68.62109;937.6364;;;;
2019/07/06 03:09:56;;;;;;;6.1;5.1;;;;;;;16.12;68.76465;937.5261;;;;
2019/07/06 03:12:29;;;;;;;10;5.8;;;;;;;16.26;68.38379;937.5438;;;;
2019/07/06 03:14:53;;;;;;;5.9;4.6;;;;;;;16.15;68.47949;937.476;;;;
2019/07/06 03:17:24;;;;;;;6.7;4.4;;;;;;;16.05;68.2002;937.4659;;;;
2019/07/06 03:19:50;;;;;;;6.5;4.7;;;;;;;15.75;69.55176;937.4915;;;;
2019/07/06 03:22:17;;;;;;;7.7;5;;;;;;;15.85;69.47461;937.5236;;;;
2019/07/06 03:24:45;;;;;;;6.3;5.1;;;;;;;15.89;69.2832;937.3778;;;;
2019/07/06 03:27:16;;;;;;;6.4;4.8;;;;;;;15.94;68.95801;937.3883;;;;
2019/07/06 03:29:42;;;;;;;8.6;5.4;;;;;;;15.96;68.91406;937.437;;;;
2019/07/06 03:32:12;;;;;;;5.8;5.1;;;;;;;15.93;68.95508;937.4286;;;;
2019/07/06 03:34:42;;;;;;;6.4;4.8;;;;;;;16.1;68.24316;937.4636;;;;
2019/07/06 03:37:07;;;;;;;7.2;5.3;;;;;;;16.17;68.14844;937.3833;;;;
2019/07/06 03:39:32;;;;;;;9.6;6.1;;;;;;;15.94;69.14063;937.4229;;;;
2019/07/06 03:42:07;;;;;;;7.7;5.7;;;;;;;15.98;69.19629;937.3147;;;;
2019/07/06 03:44:26;;;;;;;7.2;5.7;;;;;;;15.96;69.19141;937.3599;;;;
2019/07/06 03:47:02;;;;;;;7.3;5.7;;;;;;;16.02;69.04004;937.3579;;;;
2019/07/06 03:49:34;;;;;;;8.2;5.4;;;;;;;16.31;68.26367;937.3624;;;;
2019/07/06 03:52:12;;;;;;;8.1;5.7;;;;;;;16.09;68.89941;937.3024;;;;
2019/07/06 03:54:41;;;;;;;8.2;5.7;;;;;;;16.22;68.47949;937.2661;;;;
2019/07/06 03:57:13;;;;;;;8.2;5.5;;;;;;;16.1;68.80859;937.2589;;;;
2019/07/06 03:59:32;;;;;;;7.2;5.6;;;;;;;16.08;68.97852;937.2399;;;;
2019/07/06 04:02:40;;;;;;;12;6.1;;;;;;;15.83;69.85352;937.2347;;;;
2019/07/06 04:05:10;;;;;;;7.6;5.9;;;;;;;15.84;69.76074;937.1993;;;;
2019/07/06 04:07:36;;;;;;;7.7;6;;;;;;;15.89;69.80469;937.2316;;;;
2019/07/06 04:10:04;;;;;;;7.5;5.7;;;;;;;15.86;69.91602;937.1284;;;;
2019/07/06 04:12:35;;;;;;;6.3;5.5;;;;;;;15.85;70.08789;937.2232;;;;
2019/07/06 04:15:04;;;;;;;7.5;5.3;;;;;;;15.75;70.12988;937.1831;;;;
2019/07/06 04:17:36;;;;;;;7.1;5.4;;;;;;;15.81;70.33496;937.1641;;;;
2019/07/06 04:19:59;;;;;;;9.8;5.2;;;;;;;15.69;70.39648;937.1735;;;;
2019/07/06 04:22:29;;;;;;;6.4;4.9;;;;;;;15.66;70.49609;937.2236;;;;
2019/07/06 04:25:04;;;;;;;7.2;4.9;;;;;;;15.77;69.72754;937.1469;;;;
2019/07/06 04:27:25;;;;;;;11;5.5;;;;;;;15.86;69.68457;937.2224;;;;
2019/07/06 04:29:49;;;;;;;6.8;5.1;;;;;;;15.85;69.91406;937.2537;;;;
2019/07/06 04:32:24;;;;;;;6.9;5.1;;;;;;;16.01;69.26855;937.1537;;;;
2019/07/06 04:34:51;;;;;;;8.4;5.1;;;;;;;16.02;69.4541;937.174;;;;
2019/07/06 04:37:23;;;;;;;7;5.1;;;;;;;16.1;69.14355;937.1344;;;;
2019/07/06 04:39:47;;;;;;;8.4;5.1;;;;;;;16.25;68.42773;937.1422;;;;
2019/07/06 04:42:15;;;;;;;8.4;5.3;;;;;;;16.22;68.9209;937.1972;;;;
2019/07/06 04:44:45;;;;;;;8.5;5.5;;;;;;;16.33;68.6582;937.0776;;;;
2019/07/06 04:47:09;;;;;;;7.4;5.3;;;;;;;16.24;68.93457;937.053;;;;
2019/07/06 04:49:35;;;;;;;6.7;5;;;;;;;16.27;68.99902;937.088;;;;
2019/07/06 04:52:02;;;;;;;7.4;5.3;;;;;;;16.29;69.24316;937.0693;;;;
2019/07/06 04:54:28;;;;;;;7.6;5.1;;;;;;;16.34;69.02051;937.0461;;;;
2019/07/06 04:56:56;;;;;;;6.9;5;;;;;;;16.31;69.33984;937.1141;;;;
2019/07/06 04:59:21;;;;;;;7.3;4.7;;;;;;;16.22;68.85156;937.0212;;;;
2019/07/06 05:01:46;;;;;;;6.1;5;;;;;;;16.37;68.65527;936.9989;;;;
2019/07/06 05:04:11;;;;;;;6.2;4.9;;;;;;;16.51;68.52734;936.9481;;;;
2019/07/06 05:06:39;;;;;;;7.1;5.1;;;;;;;16.59;67.87891;936.8696;;;;
2019/07/06 05:09:03;;;;;;;5.7;4.5;;;;;;;17.4;67.72461;936.9311;;;;
2019/07/06 05:11:28;;;;;;;6.4;3.9;;;;;;;18.87;60.24805;936.8585;;;;
2019/07/06 05:14:09;;;;;;;5.6;3.9;;;;;;;20.23;56.09082;936.835;;;;
2019/07/06 05:16:34;;;;;;;8;3.9;;;;;;;21.31;52.51855;936.8039;;;;
2019/07/06 05:19:09;;;;;;;6;4;;;;;;;21.98;53.50098;936.8303;;;;
2019/07/06 05:21:30;;;;;;;7.8;3.7;;;;;;;22.84;47.66309;936.7853;;;;
2019/07/06 05:24:01;;;;;;;6.1;3.6;;;;;;;22.85;47.38086;936.7113;;;;
2019/07/06 05:26:26;;;;;;;5.4;3.4;;;;;;;22.97;46.87793;936.7544;;;;
2019/07/06 05:28:53;;;;;;;6.6;3.7;;;;;;;23.57;46.28223;936.7389;;;;
2019/07/06 05:31:20;;;;;;;5.2;3.3;;;;;;;24.31;43.16699;936.7026;;;;
2019/07/06 05:34:00;;;;;;;7.8;3.5;;;;;;;25.21;43.82031;936.7654;;;;
2019/07/06 05:36:28;;;;;;;5.8;3.2;;;;;;;25.44;40.91406;936.755;;;;
2019/07/06 05:38:54;;;;;;;6.4;3.2;;;;;;;25.9;39.04004;936.7056;;;;
2019/07/06 05:41:21;;;;;;;8.4;3.3;;;;;;;25.8;40.26074;936.7302;;;;
2019/07/06 05:43:56;;;;;;;8.5;3.1;;;;;;;25.93;39.52734;936.7308;;;;
2019/07/06 05:46:15;;;;;;;5.4;3.1;;;;;;;26.46;38.4375;936.7428;;;;
2019/07/06 05:48:41;;;;;;;7.8;3.1;;;;;;;26.59;38.4248;936.6917;;;;
2019/07/06 05:51:05;;;;;;;6.3;3;;;;;;;26.34;38.85352;936.6835;;;;
2019/07/06 05:53:32;;;;;;;5.2;3.2;;;;;;;26.55;38.44629;936.6404;;;;
2019/07/06 05:56:03;;;;;;;5.1;2.7;;;;;;;26.72;38.51953;936.5873;;;;
2019/07/06 05:58:30;;;;;;;6.2;3.2;;;;;;;26.4;39.29688;936.6035;;;;
2019/07/06 06:01:01;;;;;;;5.4;3.1;;;;;;;26.98;38.74414;936.6015;;;;
2019/07/06 06:03:30;;;;;;;5.2;2.9;;;;;;;27.24;39.01563;936.5806;;;;
2019/07/06 06:05:56;;;;;;;7.5;3.2;;;;;;;27.77;35.97363;936.4691;;;;
2019/07/06 06:08:22;;;;;;;5;2.9;;;;;;;27.54;36.39453;936.478;;;;
2019/07/06 06:10:52;;;;;;;6.2;3.2;;;;;;;26.55;38.90723;936.5059;;;;
2019/07/06 06:13:15;;;;;;;6.2;3.1;;;;;;;27.52;36.4873;936.4267;;;;
2019/07/06 06:15:48;;;;;;;6.4;2.8;;;;;;;27.96;36.17969;936.4451;;;;
2019/07/06 06:18:15;;;;;;;5.5;3;;;;;;;29.16;34.77539;936.4042;;;;
2019/07/06 06:20:42;;;;;;;4.1;2.7;;;;;;;29.89;32.18359;936.4142;;;;
2019/07/06 06:23:09;;;;;;;4.9;2.9;;;;;;;29.64;32.53516;936.2783;;;;
2019/07/06 06:25:42;;;;;;;6.9;2.7;;;;;;;30.41;34.16699;936.4361;;;;
2019/07/06 06:28:01;;;;;;;5.8;2.4;;;;;;;31.67;29.45996;936.4515;;;;
2019/07/06 06:30:26;;;;;;;3.8;2.7;;;;;;;32.21;27.38477;936.3615;;;;
2019/07/06 06:32:50;;;;;;;6;2.6;;;;;;;32.34;30.79883;936.2813;;;;
2019/07/06 06:35:19;;;;;;;5.6;2.4;;;;;;;33.22;26.68848;936.3323;;;;
2019/07/06 06:37:44;;;;;;;4.1;2.3;;;;;;;33.84;27.14551;936.4612;;;;
2019/07/06 06:40:17;;;;;;;5.7;2.4;;;;;;;33.93;25.25;936.4529;;;;
2019/07/06 06:42:36;;;;;;;4.8;2.6;;;;;;;32.69;31.27832;936.4007;;;;
2019/07/06 06:45:01;;;;;;;5;2.6;;;;;;;33.56;27.66992;936.3336;;;;
2019/07/06 06:47:25;;;;;;;3.9;2.5;;;;;;;34.14;26.15234;936.4398;;;;
2019/07/06 06:49:59;;;;;;;5.4;2.4;;;;;;;33.93;25.53809;936.3129;;;;
2019/07/06 06:52:32;;;;;;;4.2;2.4;;;;;;;33.51;28.97754;936.3571;;;;
2019/07/06 06:55:00;;;;;;;5.3;2.4;;;;;;;34.03;24.91797;936.3848;;;;
2019/07/06 06:57:25;;;;;;;8.5;2.7;;;;;;;34.27;24.96777;936.2811;;;;
2019/07/06 06:59:58;;;;;;;8.2;2.9;;;;;;;34.03;26.54395;936.3226;;;;
2019/07/06 07:02:23;;;;;;;4.5;2.5;;;;;;;34.63;25.37305;936.2963;;;;
2019/07/06 07:04:51;;;;;;;4.7;2.4;;;;;;;35.71;25.58984;936.1136;;;;
2019/07/06 07:07:16;;;;;;;3.6;2.1;;;;;;;36.13;25.06934;936.181;;;;
2019/07/06 07:09:44;;;;;;;5;2.3;;;;;;;36.56;22.09082;936.1689;;;;
2019/07/06 07:12:11;;;;;;;7;2.3;;;;;;;35.32;29.15332;936.1166;;;;
2019/07/06 07:14:36;;;;;;;6.9;2.4;;;;;;;34.15;28.39258;936.0455;;;;
2019/07/06 07:17:01;;;;;;;5.9;2.2;;;;;;;34.51;24.67871;935.9894;;;;
2019/07/06 07:19:30;;;;;;;5.2;2.2;;;;;;;35.23;24.12695;935.9623;;;;
2019/07/06 07:21:57;;;;;;;4.4;2.3;;;;;;;35.86;22.84277;935.9695;;;;
2019/07/06 07:24:45;;;;;;;4.9;2.3;;;;;;;33.81;27.64941;935.9432;;;;
2019/07/06 07:27:21;;;;;;;3.2;2.2;;;;;;;35.01;26.47949;935.9515;;;;
2019/07/06 07:29:49;;;;;;;58.1;7.4;;;;;;;34.9;26.28027;935.8895;;;;
2019/07/06 07:32:13;;;;;;;8.8;2.4;;;;;;;34.77;24.27148;935.8895;;;;
2019/07/06 07:34:41;;;;;;;5.1;2.5;;;;;;;34.66;27.56836;935.712;;;;
2019/07/06 07:37:13;;;;;;;4.1;2.1;;;;;;;34.26;28.35059;935.7946;;;;
2019/07/06 07:39:40;;;;;;;3.2;2.1;;;;;;;35.39;26.63477;935.8024;;;;
2019/07/06 07:42:06;;;;;;;5.1;2.1;;;;;;;36.73;24.7998;935.7137;;;;
2019/07/06 07:44:41;;;;;;;3.5;2;;;;;;;37.03;23.41016;935.7137;;;;
2019/07/06 07:47:04;;;;;;;4.5;2.1;;;;;;;37.06;24.55078;935.7476;;;;
2019/07/06 07:49:34;;;;;;;4.6;2;;;;;;;37.42;24.33984;935.6375;;;;
2019/07/06 07:51:59;;;;;;;5.3;2.1;;;;;;;37.34;21.12207;935.6605;;;;
2019/07/06 07:54:27;;;;;;;7.3;2;;;;;;;37.27;22.47656;935.6161;;;;
2019/07/06 07:56:51;;;;;;;4.7;2.2;;;;;;;37.92;20.86914;935.6234;;;;
2019/07/06 07:59:14;;;;;;;4.8;2;;;;;;;37.14;24.0332;935.5856;;;;
2019/07/06 08:01:40;;;;;;;8.3;2.4;;;;;;;36.74;26.90723;935.5887;;;;
2019/07/06 08:04:11;;;;;;;4.1;2.1;;;;;;;37.31;24.95215;935.5683;;;;
2019/07/06 08:06:46;;;;;;;9.2;2.3;;;;;;;37.63;25.43066;935.5718;;;;
2019/07/06 08:09:07;;;;;;;6.6;2.3;;;;;;;37.61;26.07227;935.6337;;;;
2019/07/06 08:11:37;;;;;;;5.5;2.2;;;;;;;37.93;26.67285;935.5154;;;;
2019/07/06 08:14:03;;;;;;;4.5;2.2;;;;;;;37.59;26.54395;935.4789;;;;
2019/07/06 08:16:37;;;;;;;5.5;2.1;;;;;;;37.26;26.70703;935.4144;;;;
2019/07/06 08:19:06;;;;;;;7.1;2;;;;;;;36.95;27.75488;935.4522;;;;
2019/07/06 08:21:36;;;;;;;21;2.9;;;;;;;37.02;25.82129;935.4457;;;;
2019/07/06 08:24:04;;;;;;;8.2;2.2;;;;;;;37.68;23.00586;935.4522;;;;
2019/07/06 08:26:32;;;;;;;6.1;2.1;;;;;;;36.53;25.79297;935.3616;;;;
2019/07/06 08:29:05;;;;;;;4.6;1.7;;;;;;;38.1;24.12012;935.4291;;;;
2019/07/06 08:31:24;;;;;;;5.3;2.1;;;;;;;38.14;21.4502;935.4437;;;;
2019/07/06 08:34:02;;;;;;;5.7;2;;;;;;;38.12;21.81348;935.4088;;;;
2019/07/06 08:36:30;;;;;;;5.8;1.9;;;;;;;38.25;21.16406;935.3535;;;;
2019/07/06 08:39:02;;;;;;;3.4;1.8;;;;;;;37.88;20.81934;935.3694;;;;
2019/07/06 08:41:26;;;;;;;4.3;2;;;;;;;36.76;22.83984;935.2997;;;;
2019/07/06 08:44:07;;;;;;;7.4;1.9;;;;;;;35.81;23.68652;935.2582;;;;
2019/07/06 08:46:31;;;;;;;5.3;2;;;;;;;36.73;21.77246;935.192;;;;
2019/07/06 08:49:04;;;;;;;2.7;1.9;;;;;;;37.17;21.80469;935.1898;;;;
2019/07/06 08:51:31;;;;;;;4.5;1.9;;;;;;;37.71;22.57129;935.29;;;;
2019/07/06 08:54:01;;;;;;;3.2;2;;;;;;;37.63;22.44531;935.3739;;;;
2019/07/06 08:56:33;;;;;;;5.9;1.9;;;;;;;37.31;24.81836;935.3689;;;;
2019/07/06 08:59:05;;;;;;;6.3;2;;;;;;;37.99;24.17578;935.324;;;;
2019/07/06 09:01:32;;;;;;;5.4;2.2;;;;;;;37.42;24.19336;935.2839;;;;
2019/07/06 09:03:59;;;;;;;5.8;1.9;;;;;;;38.27;22.9502;935.2531;;;;
2019/07/06 09:06:32;;;;;;;12.2;2.1;;;;;;;38.37;22.2998;935.2436;;;;
2019/07/06 09:09:02;;;;;;;9.8;2.1;;;;;;;37.57;25.24512;935.1896;;;;
2019/07/06 09:11:29;;;;;;;6.1;2;;;;;;;37.7;23.80859;935.2291;;;;
2019/07/06 09:14:01;;;;;;;5.5;2.1;;;;;;;36.59;27.34668;935.1311;;;;
2019/07/06 09:16:25;;;;;;;6.7;2.1;;;;;;;36.73;25.92578;935.1521;;;;
2019/07/06 09:18:58;;;;;;;5.5;2;;;;;;;36.58;25.3125;935.1155;;;;
2019/07/06 09:21:26;;;;;;;3.9;2;;;;;;;36.6;26.0752;935.1255;;;;
2019/07/06 09:23:57;;;;;;;8.6;2.2;;;;;;;36.65;25.77539;935.0672;;;;
2019/07/06 09:26:24;;;;;;;6.2;2.3;;;;;;;36.37;26.09863;935.0132;;;;
2019/07/06 09:28:55;;;;;;;5.3;2.2;;;;;;;35.99;25.75098;935.0374;;;;
2019/07/06 09:31:24;;;;;;;4.8;2;;;;;;;35.74;26.24414;935.035;;;;
2019/07/06 09:33:51;;;;;;;15.5;2.8;;;;;;;35.41;27.58984;934.9816;;;;
2019/07/06 09:36:26;;;;;;;11.3;2.5;;;;;;;35.03;27.14551;934.9631;;;;
2019/07/06 09:38:46;;;;;;;7.2;2.2;;;;;;;34.58;27.40723;934.9686;;;;
2019/07/06 09:41:15;;;;;;;4.9;2.2;;;;;;;34.08;29.08594;934.9308;;;;
2019/07/06 09:43:40;;;;;;;5.7;2.2;;;;;;;34.3;27.20996;934.8611;;;;
2019/07/06 09:46:07;;;;;;;6.8;2.3;;;;;;;34.47;29.50879;934.7928;;;;
2019/07/06 09:48:38;;;;;;;5.5;2.2;;;;;;;34.14;27.46484;934.866;;;;
2019/07/06 09:51:03;;;;;;;5.4;2.1;;;;;;;33.94;27.70508;934.8423;;;;
2019/07/06 09:53:30;;;;;;;4.7;2.1;;;;;;;33.98;27.66016;934.8427;;;;
2019/07/06 09:55:56;;;;;;;6.3;2.2;;;;;;;34.14;27.45313;934.8208;;;;
2019/07/06 09:58:20;;;;;;;6.9;2.3;;;;;;;34.28;26.6416;934.8602;;;;
2019/07/06 10:00:51;;;;;;;4.8;2.1;;;;;;;34.41;28.33594;934.8878;;;;
2019/07/06 10:03:14;;;;;;;4.9;2.1;;;;;;;34.31;26.31836;934.9242;;;;
2019/07/06 10:05:38;;;;;;;4.7;2.1;;;;;;;33.56;27.69434;934.8047;;;;
2019/07/06 10:08:11;;;;;;;4.6;2.4;;;;;;;33.49;27.70313;934.7084;;;;
2019/07/06 10:10:39;;;;;;;7.8;2.3;;;;;;;33.69;27.11328;934.7137;;;;
2019/07/06 10:13:03;;;;;;;6.6;2.2;;;;;;;33.92;28.0293;934.7675;;;;
2019/07/06 10:15:31;;;;;;;5.4;2.2;;;;;;;33.94;27.24805;934.7101;;;;
2019/07/06 10:17:59;;;;;;;10.3;2.1;;;;;;;34.17;26.69629;934.7051;;;;
2019/07/06 10:20:32;;;;;;;6.2;2;;;;;;;34.27;26.66504;934.6819;;;;
2019/07/06 10:23:03;;;;;;;4.3;2;;;;;;;34.03;27.96387;934.7372;;;;
2019/07/06 10:25:31;;;;;;;4.2;2.1;;;;;;;33.31;27.45117;934.7037;;;;
2019/07/06 10:27:59;;;;;;;7.2;3.3;;;;;;;32.11;28.49316;934.6358;;;;
2019/07/06 10:30:37;;;;;;;17.9;7.5;;;;;;;32.32;30.11328;934.7068;;;;
2019/07/06 10:33:00;;;;;;;20.5;10.9;;;;;;;32.14;30.25781;934.6564;;;;
2019/07/06 10:35:27;;;;;;;26.9;13.8;;;;;;;32.57;30.41797;934.6331;;;;
2019/07/06 10:37:52;;;;;;;21.6;10;;;;;;;32.96;30.12012;934.5859;;;;
2019/07/06 10:40:18;;;;;;;26.3;13;;;;;;;32.79;29.78516;934.64;;;;
2019/07/06 10:42:55;;;;;;;22.9;10.4;;;;;;;32.64;28.40625;934.5806;;;;
2019/07/06 10:45:23;;;;;;;5.7;3.1;;;;;;;31.98;28.26953;934.5941;;;;
2019/07/06 10:51:41;;;;;;;7.9;3.9;;;;;;;31.33;30;934.5215;;;;
2019/07/06 10:54:12;;;;;;;7.9;3.8;;;;;;;31.2;30.99707;934.5663;;;;
2019/07/06 10:56:36;;;;;;;7.8;3.1;;;;;;;31.1;31.56348;934.5146;;;;
2019/07/06 10:59:00;;;;;;;9.7;4;;;;;;;31.37;30.12207;934.5092;;;;
2019/07/06 11:01:30;;;;;;;7.4;3.5;;;;;;;31.38;32.02539;934.4512;;;;
2019/07/06 11:03:52;;;;;;;9.2;3.3;;;;;;;31.15;32.15332;934.4535;;;;
2019/07/06 11:06:22;;;;;;;6.2;3.5;;;;;;;30.92;31.73047;934.5046;;;;
2019/07/06 11:08:48;;;;;;;5.7;2.4;;;;;;;30.94;29.79395;934.4175;;;;
2019/07/06 11:11:12;;;;;;;6.2;3.2;;;;;;;31.15;30.76563;934.4745;;;;
2019/07/06 11:13:40;;;;;;;5.8;2.7;;;;;;;31.04;33.52051;934.443;;;;
2019/07/06 11:16:17;;;;;;;5.9;2.7;;;;;;;31.01;33.2793;934.4352;;;;
2019/07/06 11:18:40;;;;;;;6.6;2.9;;;;;;;31.16;32.16602;934.4428;;;;
2019/07/06 11:23:57;;;;;;;7.3;3.4;;;;;;;31.28;31.83984;934.4682;;;;
2019/07/06 11:26:20;;;;;;;5.9;2.9;;;;;;;31.2;32.75488;934.5005;;;;
2019/07/06 11:28:49;;;;;;;6.8;2.9;;;;;;;31.2;34.03418;934.4137;;;;
2019/07/06 11:31:14;;;;;;;4.9;2.6;;;;;;;31.27;32.43652;934.3301;;;;
2019/07/06 11:33:40;;;;;;;4.2;2.7;;;;;;;31.46;32.94141;934.3267;;;;
2019/07/06 11:36:07;;;;;;;7.6;3;;;;;;;31.45;33.41895;934.3281;;;;
2019/07/06 11:38:33;;;;;;;8.5;2.8;;;;;;;31.21;31.42773;934.2753;;;;
2019/07/06 11:41:03;;;;;;;5.5;2.8;;;;;;;30.95;31.20605;934.2621;;;;
2019/07/06 11:43:36;;;;;;;7.5;2.7;;;;;;;31.05;34.08398;934.3007;;;;
2019/07/06 11:45:57;;;;;;;5.5;2.4;;;;;;;31.08;33.77539;934.2766;;;;
2019/07/06 11:48:23;;;;;;;4.8;2.6;;;;;;;31.1;33.17773;934.283;;;;
2019/07/06 11:50:47;;;;;;;8.7;2.5;;;;;;;30.99;30.02539;934.2274;;;;
2019/07/06 11:53:22;;;;;;;4.1;2.3;;;;;;;30.97;32.4873;934.2619;;;;
2019/07/06 11:55:43;;;;;;;5.4;3.1;;;;;;;30.96;33.38281;934.2501;;;;
2019/07/06 11:58:11;;;;;;;5.6;2.6;;;;;;;30.9;34.00098;934.31;;;;
2019/07/06 12:00:34;;;;;;;6.8;3;;;;;;;30.81;30.75488;934.2424;;;;
2019/07/06 12:03:09;;;;;;;5.6;2.4;;;;;;;30.84;33.48145;934.2647;;;;
2019/07/06 12:05:36;;;;;;;6;2.4;;;;;;;30.71;34.6084;934.2605;;;;
2019/07/06 12:08:08;;;;;;;6.8;2.8;;;;;;;30.52;30.66406;934.2422;;;;
2019/07/06 12:10:32;;;;;;;4.9;2.4;;;;;;;30.48;30.21875;934.2939;;;;
2019/07/06 12:13:05;;;;;;;6.4;2.7;;;;;;;30.39;30.30762;934.3234;;;;
2019/07/06 12:15:26;;;;;;;8.9;2.5;;;;;;;30.35;29.63672;934.3869;;;;
2019/07/06 12:17:50;;;;;;;3.9;2.5;;;;;;;30.36;29.42188;934.3644;;;;
2019/07/06 12:20:21;;;;;;;6.1;2.6;;;;;;;30.37;31.28613;934.384;;;;
2019/07/06 12:22:52;;;;;;;6.5;2.3;;;;;;;30.24;31.1582;934.4023;;;;
2019/07/06 12:25:16;;;;;;;6.2;2.4;;;;;;;30.27;29.82227;934.3889;;;;
2019/07/06 12:27:41;;;;;;;7.3;2.7;;;;;;;30.1;33.00977;934.2612;;;;
2019/07/06 12:30:08;;;;;;;8.3;2.5;;;;;;;30.09;32.34082;934.0931;;;;
2019/07/06 12:32:34;;;;;;;7.7;2.7;;;;;;;29.99;29.00488;934.0842;;;;
2019/07/06 12:35:00;;;;;;;6.9;2.7;;;;;;;30.42;29.4502;934.1337;;;;
2019/07/06 12:37:29;;;;;;;5.3;2.5;;;;;;;30.89;29.31348;934.2062;;;;
2019/07/06 12:39:53;;;;;;;5.2;2.4;;;;;;;31.25;28.88281;934.1578;;;;
2019/07/06 12:42:17;;;;;;;5;2.3;;;;;;;31.57;29.96777;934.2053;;;;
2019/07/06 12:44:45;;;;;;;3.8;2.2;;;;;;;31.54;27.17676;934.2491;;;;
2019/07/06 12:47:09;;;;;;;4.8;2.2;;;;;;;31.54;26.65039;934.2056;;;;
2019/07/06 12:49:51;;;;;;;5.4;2.2;;;;;;;31.39;26.93945;934.164;;;;
2019/07/06 12:52:19;;;;;;;6.1;2.3;;;;;;;31.25;26.56152;934.1711;;;;
2019/07/06 12:54:36;;;;;;;6.4;2.3;;;;;;;31.29;27.38867;934.2299;;;;
2019/07/06 12:57:04;;;;;;;4.4;2.2;;;;;;;31.17;26.87891;934.2126;;;;
2019/07/06 12:59:28;;;;;;;4.7;2.4;;;;;;;30.98;26.79688;934.1854;;;;
2019/07/06 13:02:00;;;;;;;6.8;2.4;;;;;;;30.92;26.49316;934.1533;;;;
2019/07/06 13:04:28;;;;;;;3.7;2.3;;;;;;;30.71;27.23438;934.1869;;;;
2019/07/06 13:10:44;;;;;;;4.4;2.6;;;;;;;30.6;26.83301;934.0797;;;;
2019/07/06 13:13:08;;;;;;;5.7;2.7;;;;;;;30.65;28.65234;934.027;;;;
2019/07/06 13:15:43;;;;;;;5.5;2.6;;;;;;;30.56;27.96582;934.038;;;;
2019/07/06 13:18:04;;;;;;;5.6;2.6;;;;;;;30.57;27.90723;933.9708;;;;
2019/07/06 13:20:31;;;;;;;8.6;2.3;;;;;;;30.31;27.20996;933.9744;;;;
2019/07/06 13:23:00;;;;;;;4.5;2.3;;;;;;;30.21;27.83594;933.87;;;;
2019/07/06 13:25:24;;;;;;;7.8;2.5;;;;;;;30.15;27.28418;933.7891;;;;
2019/07/06 13:27:50;;;;;;;4.6;2.4;;;;;;;30.25;28.65137;933.8317;;;;
2019/07/06 13:30:17;;;;;;;4.9;2.2;;;;;;;30.23;27.52832;933.7554;;;;
2019/07/06 13:32:40;;;;;;;5.9;2.4;;;;;;;30.29;28.02148;933.7629;;;;
2019/07/06 13:35:04;;;;;;;8.4;2.9;;;;;;;30.39;28.1709;933.8014;;;;
2019/07/06 13:37:30;;;;;;;6.3;2.6;;;;;;;30.44;27.58789;933.8591;;;;
2019/07/06 13:40:03;;;;;;;5.7;2.6;;;;;;;30.64;28.4248;933.8706;;;;
2019/07/06 13:42:31;;;;;;;9.4;2.5;;;;;;;31.01;30.66113;933.7942;;;;
2019/07/06 13:44:58;;;;;;;6.1;2.6;;;;;;;31.13;30.68164;933.8284;;;;
2019/07/06 13:47:25;;;;;;;11.1;3;;;;;;;31.13;30.77637;933.7943;;;;
2019/07/06 13:49:48;;;;;;;6.1;2.4;;;;;;;31.01;27.16895;933.6401;;;;
2019/07/06 13:52:17;;;;;;;5.4;2.4;;;;;;;31.09;28.42871;933.6302;;;;
2019/07/06 13:54:44;;;;;;;7.1;2.2;;;;;;;31.16;30.18066;933.5069;;;;
2019/07/06 13:57:11;;;;;;;8.2;2.5;;;;;;;31.36;30.4209;933.4928;;;;
2019/07/06 13:59:40;;;;;;;7.2;2.7;;;;;;;31.36;30.00195;933.3875;;;;
2019/07/06 14:02:02;;;;;;;8.7;2.7;;;;;;;31.31;31.89063;933.5276;;;;
2019/07/06 14:04:37;;;;;;;5.6;2.6;;;;;;;31.43;31.61035;933.5234;;;;
2019/07/06 14:06:53;;;;;;;7;2.7;;;;;;;31.48;34.98926;933.5717;;;;
2019/07/06 14:09:26;;;;;;;6.6;2.6;;;;;;;31.36;35.61426;933.5772;;;;
2019/07/06 14:12:04;;;;;;;9.4;2.6;;;;;;;31.07;33.73828;933.4897;;;;
2019/07/06 14:14:16;;;;;;;4.6;2.5;;;;;;;31.14;29.74805;933.4375;;;;
2019/07/06 14:16:43;;;;;;;4.1;2.3;;;;;;;31.28;31.22949;933.4808;;;;
2019/07/06 14:19:07;;;;;;;5.8;2.5;;;;;;;31.38;32.57715;933.4359;;;;
2019/07/06 14:21:36;;;;;;;6.4;2.4;;;;;;;31.39;32.2666;933.412;;;;
2019/07/06 14:24:04;;;;;;;10.1;2.7;;;;;;;31.43;33.96875;933.4141;;;;
2019/07/06 14:26:35;;;;;;;4.1;2.5;;;;;;;31.28;33.33496;933.3412;;;;
2019/07/06 14:29:05;;;;;;;5.8;2.6;;;;;;;31.39;34.8623;933.2817;;;;
2019/07/06 14:31:30;;;;;;;8;2.5;;;;;;;31.48;33.29004;933.2991;;;;
2019/07/06 14:33:58;;;;;;;4.2;2.3;;;;;;;31.6;31.75391;933.2327;;;;
2019/07/06 14:36:21;;;;;;;4.2;2.3;;;;;;;31.61;32.79688;933.2219;;;;
2019/07/06 14:38:50;;;;;;;4.9;2.4;;;;;;;31.45;31.09668;933.156;;;;
2019/07/06 14:41:11;;;;;;;5.2;2.4;;;;;;;31.36;32.81445;933.1544;;;;